Time;durP1;ratioP1;P1;durP2;ratioP2;P2;SDS_P1;SDS_P2;PMS_P1;PMS_P2;Temp;Humidity;BMP_temperature;BMP_pressure;BME280_temperature;BME280_humidity;BME280_pressure;Samples;Min_cycle;Max_cycle;Signal;HPM_P1;HPM_P2
2022/10/13 00:01:43;;;;;;;2.45;1.50;;;;;;;18.32;67.03;102110.28;5050902;28;20029;-85
2022/10/13 00:04:08;;;;;;;2.58;1.60;;;;;;;18.66;66.94;102159.38;5058476;28;20037;-84
2022/10/13 00:06:34;;;;;;;2.08;1.33;;;;;;;18.60;66.85;102157.34;5060930;28;20067;-86
2022/10/13 00:08:59;;;;;;;1.75;1.40;;;;;;;18.62;67.22;102155.69;5063101;28;20090;-84
2022/10/13 00:11:27;;;;;;;2.08;1.40;;;;;;;18.40;67.09;102118.56;5051054;28;20489;-86
2022/10/13 00:13:59;;;;;;;1.60;1.48;;;;;;;18.74;67.04;102170.31;5050973;28;20025;-84
2022/10/13 00:16:25;;;;;;;2.05;1.38;;;;;;;18.62;66.97;102165.38;5053463;28;20664;-85
2022/10/13 00:18:51;;;;;;;1.88;1.48;;;;;;;18.62;67.25;102166.25;5053561;28;20095;-85
2022/10/13 00:21:19;;;;;;;1.98;1.35;;;;;;;18.72;67.09;102189.66;5067480;28;20108;-84
2022/10/13 00:23:45;;;;;;;1.40;1.20;;;;;;;18.38;67.28;102123.78;5066968;28;20028;-84
2022/10/13 00:26:12;;;;;;;2.72;1.52;;;;;;;18.71;67.07;102177.28;5054690;28;20033;-85
2022/10/13 00:28:38;;;;;;;2.42;1.60;;;;;;;18.23;67.12;102081.72;5055318;28;20113;-84
2022/10/13 00:31:15;;;;;;;2.10;1.38;;;;;;;18.59;67.14;102150.28;5050684;28;20120;-86
2022/10/13 00:33:40;;;;;;;2.42;1.40;;;;;;;18.48;67.01;102122.47;5034220;28;20056;-85
2022/10/13 00:36:06;;;;;;;2.30;1.50;;;;;;;18.61;67.00;102148.59;5040755;28;20414;-86
2022/10/13 00:38:32;;;;;;;1.65;1.40;;;;;;;18.57;67.04;102137.81;5056472;28;20025;-85
2022/10/13 00:40:57;;;;;;;2.58;1.45;;;;;;;18.62;66.98;102146.84;5049956;28;20518;-85
2022/10/13 00:43:27;;;;;;;3.17;2.05;;;;;;;18.61;66.82;102145.94;5036863;28;20029;-86
2022/10/13 00:45:53;;;;;;;1.77;1.55;;;;;;;18.60;66.78;102148.53;5036104;28;20037;-85
2022/10/13 00:48:24;;;;;;;1.42;1.33;;;;;;;18.70;66.78;102172.78;5046611;28;20025;-85
2022/10/13 00:50:50;;;;;;;1.48;1.30;;;;;;;18.47;66.83;102131.22;5046563;28;20029;-86
2022/10/13 00:53:17;;;;;;;1.50;1.40;;;;;;;18.25;66.92;102089.72;5047406;28;20040;-85
2022/10/13 00:55:44;;;;;;;2.33;1.38;;;;;;;18.56;66.92;102143.94;5033799;28;20060;-85
2022/10/13 00:58:14;;;;;;;1.80;1.30;;;;;;;18.48;67.06;102131.28;5046527;28;20070;-85
2022/10/13 01:00:43;;;;;;;2.40;1.50;;;;;;;18.26;66.99;102097.69;5029749;28;20037;-86
2022/10/13 01:03:09;;;;;;;2.30;1.45;;;;;;;18.68;66.90;102168.28;5044463;28;22021;-86
2022/10/13 01:05:34;;;;;;;3.25;1.60;;;;;;;18.36;66.71;102099.00;5058320;28;20059;-85
2022/10/13 01:08:01;;;;;;;1.40;1.30;;;;;;;18.24;66.91;102091.44;5045534;28;20409;-86
2022/10/13 01:10:32;;;;;;;;;;;;;;;18.69;66.65;102165.72;5032546;28;20026;-85
2022/10/13 01:13:23;;;;;;;2.67;1.27;;;;;;;18.66;66.87;102165.56;5065636;28;19912;-85
2022/10/13 01:16:20;;;;;;;2.50;1.30;;;;;;;18.64;67.14;102175.19;5043075;28;20600;-85
2022/10/13 01:18:48;;;;;;;1.85;1.60;;;;;;;18.64;66.94;102172.53;5046916;28;20029;-84
2022/10/13 01:21:32;;;;;;;1.65;1.20;;;;;;;18.63;66.98;102176.03;5041512;28;20029;-85
2022/10/13 01:24:19;;;;;;;1.67;1.30;;;;;;;18.63;67.00;102185.72;5052879;28;20029;-85
2022/10/13 01:26:53;;;;;;;1.75;1.27;;;;;;;18.62;67.06;102176.84;5039482;28;20033;-85
2022/10/13 01:29:46;;;;;;;1.80;1.35;;;;;;;18.53;66.90;102155.28;5057806;28;20490;-85
2022/10/13 01:32:21;;;;;;;2.25;1.45;;;;;;;18.57;66.88;102170.47;5048023;28;20029;-86
2022/10/13 01:34:51;;;;;;;2.47;1.42;;;;;;;18.64;66.80;102176.94;5048770;28;20025;-86
2022/10/13 01:37:45;;;;;;;1.70;1.45;;;;;;;18.65;67.06;102181.41;5042215;28;20076;-85
2022/10/13 01:40:11;;;;;;;1.65;1.40;;;;;;;18.63;66.84;102177.78;5043086;28;20041;-85
2022/10/13 01:42:45;;;;;;;1.35;1.05;;;;;;;18.59;67.11;102176.72;5040315;28;20035;-85
2022/10/13 01:45:13;;;;;;;2.35;1.30;;;;;;;18.44;66.86;102153.16;5035435;28;20052;-85
2022/10/13 01:47:39;;;;;;;1.95;1.20;;;;;;;18.59;67.21;102187.31;5035135;28;20033;-84
2022/10/13 01:50:05;;;;;;;3.05;1.58;;;;;;;18.05;66.93;102092.34;5044061;28;20034;-85
2022/10/13 01:52:53;;;;;;;2.08;1.50;;;;;;;18.60;66.95;102185.56;5053433;28;20043;-86
2022/10/13 01:55:18;;;;;;;1.50;1.38;;;;;;;18.51;67.14;102170.19;5060016;28;20113;-86
2022/10/13 01:57:44;;;;;;;1.45;1.20;;;;;;;18.52;66.93;102178.22;5047337;28;20555;-85
2022/10/13 02:00:13;;;;;;;2.50;1.75;;;;;;;18.45;67.02;102172.56;5046169;28;20035;-85
2022/10/13 02:03:00;;;;;;;2.90;1.40;;;;;;;18.57;67.18;102196.03;5047585;28;20498;-86
2022/10/13 02:05:38;;;;;;;2.33;1.48;;;;;;;18.33;66.86;102146.50;5055319;28;20100;-85
2022/10/13 02:08:13;;;;;;;2.95;1.70;;;;;;;18.60;66.91;102202.34;5044480;28;20503;-84
2022/10/13 02:10:50;;;;;;;2.28;1.40;;;;;;;18.59;66.97;102200.53;5042310;28;20028;-84
2022/10/13 02:13:16;;;;;;;;;;;;;;;18.60;66.94;102204.09;5035352;28;20083;-85
2022/10/13 02:15:46;;;;;;;1.52;1.40;;;;;;;18.46;66.99;102191.16;5037706;28;20378;-85
2022/10/13 02:18:15;;;;;;;2.38;1.73;;;;;;;18.10;66.83;102119.03;5051458;28;20021;-84
2022/10/13 02:20:41;;;;;;;2.00;1.50;;;;;;;18.51;66.76;102188.72;5040130;28;20735;-86
2022/10/13 02:23:10;;;;;;;1.92;1.67;;;;;;;18.59;66.75;102208.47;5050167;28;20025;-86
2022/10/13 02:25:36;;;;;;;3.58;1.77;;;;;;;18.40;66.81;102167.06;5044245;28;20029;-85
2022/10/13 02:28:03;;;;;;;2.78;1.65;;;;;;;18.41;66.86;102168.88;5051931;28;20029;-86
2022/10/13 02:30:32;;;;;;;2.22;1.88;;;;;;;18.57;66.84;102198.66;5036918;28;20498;-86
2022/10/13 02:32:59;;;;;;;3.00;2.00;;;;;;;18.43;66.80;102180.41;5030540;28;20446;-86
2022/10/13 02:35:24;;;;;;;3.72;1.90;;;;;;;18.54;66.64;102190.59;5045321;28;20383;-86
2022/10/13 02:37:50;;;;;;;3.58;2.00;;;;;;;18.43;66.69;102174.22;5048920;28;20056;-87
2022/10/13 02:40:16;;;;;;;2.38;1.98;;;;;;;18.40;66.58;102176.75;5036673;28;20523;-86
2022/10/13 02:42:41;;;;;;;3.05;2.10;;;;;;;18.34;66.71;102166.81;5048332;28;20078;-86
2022/10/13 02:45:08;;;;;;;2.35;1.95;;;;;;;18.34;66.83;102163.25;5055748;28;20029;-85
2022/10/13 02:47:34;;;;;;;4.13;2.10;;;;;;;18.40;66.59;102167.06;5034792;28;20045;-85
2022/10/13 02:49:59;;;;;;;3.55;2.17;;;;;;;18.50;66.73;102190.47;5047013;28;20029;-84
2022/10/13 02:52:25;;;;;;;2.97;2.10;;;;;;;18.49;66.45;102180.69;5043532;28;20076;-84
2022/10/13 02:54:50;;;;;;;2.40;1.92;;;;;;;18.45;66.53;102175.22;5047698;28;20024;-84
2022/10/13 02:57:16;;;;;;;3.63;2.10;;;;;;;18.32;66.62;102149.97;5040375;28;20033;-84
2022/10/13 02:59:42;;;;;;;2.88;1.90;;;;;;;18.22;66.54;102132.75;5051277;28;20020;-84
2022/10/13 03:02:07;;;;;;;3.70;2.03;;;;;;;18.09;66.53;102117.19;5041870;28;20036;-85
2022/10/13 03:04:34;;;;;;;3.55;2.20;;;;;;;18.43;66.56;102188.34;5046255;28;20025;-85
2022/10/13 03:06:59;;;;;;;4.28;2.40;;;;;;;18.42;66.58;102175.97;5031958;28;20030;-84
2022/10/13 03:09:25;;;;;;;2.50;1.98;;;;;;;18.20;66.57;102139.75;5040506;28;20025;-84
2022/10/13 03:11:51;;;;;;;4.43;2.50;;;;;;;18.44;66.80;102182.25;5046473;28;20215;-84
2022/10/13 03:14:16;;;;;;;3.55;2.30;;;;;;;18.42;66.61;102183.03;5044338;28;20425;-85
2022/10/13 03:16:42;;;;;;;4.15;2.50;;;;;;;18.46;66.77;102184.97;5044311;28;20033;-86
2022/10/13 03:19:08;;;;;;;3.92;2.00;;;;;;;18.52;66.65;102194.09;5038736;28;20040;-85
2022/10/13 03:21:33;;;;;;;4.80;2.45;;;;;;;18.37;66.56;102173.97;5046146;28;20028;-84
2022/10/13 03:23:59;;;;;;;4.03;2.70;;;;;;;18.49;66.63;102193.03;5046523;28;20105;-85
2022/10/13 03:26:24;;;;;;;3.78;2.60;;;;;;;18.47;66.61;102184.13;5039241;28;20029;-84
2022/10/13 03:28:50;;;;;;;3.63;2.40;;;;;;;18.19;66.77;102126.47;5056776;28;20048;-85
2022/10/13 03:31:16;;;;;;;5.18;2.70;;;;;;;18.47;66.42;102179.72;5030655;28;20040;-85
2022/10/13 03:33:42;;;;;;;3.25;2.45;;;;;;;18.39;66.50;102167.91;5046215;28;20029;-84
2022/10/13 03:36:09;;;;;;;;;;;;;;;18.46;66.77;102169.09;5044298;28;20029;-84
2022/10/13 03:38:35;;;;;;;4.30;2.72;;;;;;;18.26;66.71;102136.47;5036660;28;19912;-85
2022/10/13 03:41:13;;;;;;;3.58;2.40;;;;;;;18.28;66.70;102138.34;5052258;28;20033;-86
2022/10/13 03:43:40;;;;;;;4.53;2.70;;;;;;;18.23;66.74;102125.75;5032720;28;20034;-86
2022/10/13 03:46:07;;;;;;;3.85;2.50;;;;;;;18.39;66.50;102153.78;5030733;28;20029;-86
2022/10/13 03:48:34;;;;;;;3.67;2.63;;;;;;;18.29;66.51;102149.84;5036440;28;20025;-86
2022/10/13 03:51:02;;;;;;;3.58;2.55;;;;;;;18.38;66.62;102157.28;5035578;28;20025;-86
2022/10/13 03:53:28;;;;;;;3.47;2.90;;;;;;;18.37;66.44;102159.03;5024420;28;20021;-86
2022/10/13 03:55:55;;;;;;;3.40;2.50;;;;;;;18.47;66.33;102165.59;5036382;28;20033;-86
2022/10/13 03:58:22;;;;;;;3.38;2.60;;;;;;;18.45;66.49;102159.34;5047908;28;20498;-86
2022/10/13 04:00:48;;;;;;;4.35;2.85;;;;;;;18.41;66.42;102154.75;5046266;28;20044;-86
2022/10/13 04:03:15;;;;;;;;;;;;;;;18.47;66.36;102157.66;5038690;28;20040;-87
2022/10/13 04:05:41;;;;;;;4.95;3.00;;;;;;;18.05;66.35;102096.75;5045228;28;19915;-87
2022/10/13 04:08:07;;;;;;;3.88;2.80;;;;;;;18.20;66.48;102115.97;5032294;28;20030;-87
2022/10/13 04:10:32;;;;;;;4.45;3.22;;;;;;;18.12;66.55;102109.41;5045961;28;20028;-87
2022/10/13 04:12:58;;;;;;;4.07;3.13;;;;;;;18.11;66.16;102102.31;5041960;28;20025;-88
2022/10/13 04:15:24;;;;;;;4.30;2.78;;;;;;;18.36;66.32;102148.38;5049768;28;20056;-87
2022/10/13 04:17:50;;;;;;;4.57;2.90;;;;;;;18.24;66.48;102138.13;5059730;28;20486;-87
2022/10/13 04:20:16;;;;;;;4.35;2.80;;;;;;;18.15;66.25;102109.53;5048761;28;20415;-87
2022/10/13 04:22:41;;;;;;;3.65;2.80;;;;;;;17.88;66.41;102072.19;5048115;28;20021;-87
2022/10/13 04:25:07;;;;;;;5.40;3.28;;;;;;;18.33;66.27;102148.22;5048572;28;20020;-87
2022/10/13 04:27:36;;;;;;;7.35;3.15;;;;;;;18.27;66.22;102143.56;5042482;28;20082;-87
2022/10/13 04:30:03;;;;;;;6.00;2.90;;;;;;;17.96;66.25;102084.03;5052748;28;20429;-86
2022/10/13 04:32:29;;;;;;;4.40;2.85;;;;;;;18.35;66.17;102142.19;5038160;28;20042;-86
2022/10/13 04:34:55;;;;;;;4.50;2.90;;;;;;;18.25;66.19;102134.66;5042292;28;20482;-87
2022/10/13 04:37:20;;;;;;;4.20;2.88;;;;;;;18.26;66.16;102126.78;5043803;28;20133;-85
2022/10/13 04:39:46;;;;;;;3.75;2.70;;;;;;;18.33;66.42;102145.56;5048278;28;20536;-86
2022/10/13 04:42:11;;;;;;;3.63;2.60;;;;;;;17.99;66.34;102097.41;5047565;28;20721;-85
2022/10/13 04:44:37;;;;;;;5.22;3.08;;;;;;;18.28;66.14;102138.34;5059820;28;20555;-86
2022/10/13 04:47:03;;;;;;;7.03;3.03;;;;;;;17.86;66.01;102068.59;5051612;28;20403;-86
2022/10/13 04:49:28;;;;;;;6.05;2.95;;;;;;;18.06;66.27;102117.97;5049090;28;20033;-86
2022/10/13 04:51:54;;;;;;;6.00;3.17;;;;;;;18.01;66.11;102094.78;5050150;28;20477;-87
2022/10/13 04:54:19;;;;;;;4.28;3.17;;;;;;;18.24;66.06;102135.47;5043116;28;20037;-89
2022/10/13 04:56:45;;;;;;;5.03;3.00;;;;;;;18.29;66.19;102149.84;5036995;28;20021;-86
2022/10/13 04:59:11;;;;;;;4.45;2.88;;;;;;;18.08;66.13;102115.41;5039851;28;20099;-85
2022/10/13 05:01:38;;;;;;;5.38;3.13;;;;;;;18.25;66.00;102153.19;5047967;28;20064;-85
2022/10/13 05:04:04;;;;;;;4.90;3.20;;;;;;;18.36;65.95;102169.53;5046614;28;20078;-86
2022/10/13 05:06:32;;;;;;;;;;;;;;;18.37;65.86;102169.59;5057201;28;20026;-86
2022/10/13 05:08:58;;;;;;;4.93;2.80;;;;;;;18.08;66.10;102133.91;5054137;28;19970;-86
2022/10/13 05:11:25;;;;;;;6.15;3.08;;;;;;;18.32;66.12;102171.13;5058284;28;20037;-86
2022/10/13 05:13:51;;;;;;;4.65;3.05;;;;;;;18.04;65.88;102127.56;5059625;28;20029;-87
2022/10/13 05:16:17;;;;;;;5.15;2.90;;;;;;;18.32;66.17;102171.13;5050444;28;20108;-87
2022/10/13 05:18:43;;;;;;;4.15;2.88;;;;;;;18.04;65.85;102124.03;5039306;28;20025;-86
2022/10/13 05:21:11;;;;;;;4.30;3.00;;;;;;;18.36;65.72;102173.06;5036078;28;20025;-86
2022/10/13 05:23:37;;;;;;;6.22;3.17;;;;;;;18.03;65.98;102127.50;5033086;28;20067;-87
2022/10/13 05:26:05;;;;;;;4.63;2.78;;;;;;;17.99;65.92;102120.25;5031276;28;20055;-87
2022/10/13 05:28:30;;;;;;;4.75;2.72;;;;;;;18.22;66.06;102166.25;5034743;28;20025;-87
2022/10/13 05:30:56;;;;;;;5.45;3.25;;;;;;;18.32;65.98;102176.41;5039453;28;20112;-87
2022/10/13 05:33:22;;;;;;;3.95;2.78;;;;;;;18.18;66.12;102162.59;5028059;28;20040;-86
2022/10/13 05:35:47;;;;;;;5.50;3.25;;;;;;;18.02;65.87;102126.59;5041489;28;20021;-86
2022/10/13 05:38:48;;;;;;;4.35;2.53;;;;;;;18.35;65.90;102179.22;5042798;28;20678;-86
2022/10/13 05:41:14;;;;;;;3.97;3.22;;;;;;;17.88;65.84;102098.63;5051246;28;20044;-87
2022/10/13 05:43:50;;;;;;;3.90;3.05;;;;;;;18.00;65.93;102116.78;5036245;28;20433;-88
2022/10/13 05:46:16;;;;;;;4.13;3.10;;;;;;;17.88;66.01;102110.09;5049581;28;20098;-88
2022/10/13 05:48:41;;;;;;;6.20;3.53;;;;;;;18.27;66.13;102180.59;5038561;28;20028;-89
2022/10/13 05:51:14;;;;;;;4.45;2.88;;;;;;;18.33;65.88;102188.81;5035841;28;20025;-88
2022/10/13 05:53:47;;;;;;;4.97;3.00;;;;;;;18.04;66.00;102142.53;5038646;28;20482;-87
2022/10/13 05:56:15;;;;;;;4.35;3.10;;;;;;;18.19;66.25;102174.06;5041477;28;20112;-87
2022/10/13 05:58:47;;;;;;;4.13;2.80;;;;;;;18.29;65.89;102192.16;5054050;28;20040;-87
2022/10/13 06:01:16;;;;;;;5.35;2.90;;;;;;;17.89;65.80;102119.84;5045465;28;20684;-87
2022/10/13 06:03:42;;;;;;;3.85;2.92;;;;;;;18.23;65.95;102176.00;5039572;28;20033;-87
2022/10/13 06:06:08;;;;;;;5.15;3.03;;;;;;;17.88;65.91;102122.41;5048827;28;20521;-88
2022/10/13 06:08:34;;;;;;;3.58;2.65;;;;;;;18.07;65.73;102158.53;5046729;28;20058;-87
2022/10/13 06:11:01;;;;;;;4.47;3.00;;;;;;;18.22;65.89;102174.19;5040752;28;20514;-87
2022/10/13 06:13:27;;;;;;;4.30;2.90;;;;;;;17.77;66.16;102106.03;5052599;28;20106;-89
2022/10/13 06:15:53;;;;;;;4.28;2.97;;;;;;;17.97;66.09;102136.06;5033236;28;20029;-88
2022/10/13 06:18:19;;;;;;;2.97;2.60;;;;;;;18.23;65.88;102178.66;5046677;28;20083;-88
2022/10/13 06:20:47;;;;;;;5.25;2.92;;;;;;;18.28;65.90;102193.88;5049266;28;20482;-87
2022/10/13 06:23:13;;;;;;;6.68;3.22;;;;;;;18.30;66.11;102194.84;5029802;28;20063;-87
2022/10/13 06:25:49;;;;;;;4.45;3.10;;;;;;;17.98;65.97;102134.31;5046064;28;20032;-87
2022/10/13 06:28:18;;;;;;;3.43;2.67;;;;;;;18.08;66.15;102144.50;5044837;28;20116;-87
2022/10/13 06:30:56;;;;;;;5.35;3.13;;;;;;;18.31;66.00;102188.72;5049771;28;20822;-87
2022/10/13 06:33:24;;;;;;;4.25;2.70;;;;;;;17.75;65.87;102090.94;5027622;28;20449;-87
2022/10/13 06:35:51;;;;;;;5.13;3.05;;;;;;;18.29;65.97;102185.13;5038620;28;20035;-88
2022/10/13 06:38:19;;;;;;;3.55;2.58;;;;;;;17.57;66.50;102073.44;5016504;28;20076;-88
2022/10/13 06:40:47;;;;;;;4.55;2.72;;;;;;;17.85;65.94;102112.63;5047264;28;20387;-89
2022/10/13 06:43:35;;;;;;;3.17;2.60;;;;;;;18.27;65.97;102186.78;5046095;28;20021;-88
2022/10/13 06:46:00;;;;;;;;;;;;;;;18.31;65.96;102187.84;5043217;28;20502;-89
2022/10/13 06:48:27;;;;;;;4.15;2.75;;;;;;;18.29;66.20;102186.84;5031152;28;19955;-89
2022/10/13 06:50:52;;;;;;;3.97;2.53;;;;;;;17.94;66.25;102132.38;5052457;28;20466;-87
2022/10/13 06:53:18;;;;;;;4.00;2.20;;;;;;;18.13;67.07;102187.88;5048631;28;20044;-88
2022/10/13 06:55:44;;;;;;;4.15;2.55;;;;;;;18.07;66.43;102150.59;5022668;28;20137;-89
2022/10/13 06:58:12;;;;;;;4.18;2.45;;;;;;;18.07;66.58;102164.69;5037001;28;20037;-88
2022/10/13 07:00:39;;;;;;;3.35;2.53;;;;;;;18.09;66.66;102155.09;5031321;28;20119;-90
2022/10/13 07:03:09;;;;;;;4.82;2.40;;;;;;;17.79;66.53;102112.28;5014554;28;20116;-89
2022/10/13 07:05:38;;;;;;;3.35;2.25;;;;;;;17.71;66.60;102092.53;5014430;28;20028;-87
2022/10/13 07:08:03;;;;;;;4.75;2.42;;;;;;;17.86;66.50;102124.09;5032970;28;20033;-86
2022/10/13 07:10:38;;;;;;;3.10;2.20;;;;;;;17.96;66.89;102141.28;5031114;28;20466;-85
2022/10/13 07:13:47;;;;;;;2.88;2.20;;;;;;;18.24;66.44;102180.44;5032101;28;20029;-89
2022/10/13 07:16:20;;;;;;;2.17;1.95;;;;;;;17.89;66.57;102126.88;5041642;28;20032;-88
2022/10/13 07:18:49;;;;;;;3.05;2.42;;;;;;;18.16;66.66;102176.53;5029770;28;20037;-88
2022/10/13 07:21:18;;;;;;;3.75;2.13;;;;;;;17.82;66.51;102116.81;5030085;28;20036;-88
2022/10/13 07:24:14;;;;;;;2.70;2.22;;;;;;;18.22;66.61;102180.38;5043109;28;20040;-88
2022/10/13 07:26:41;;;;;;;3.30;2.20;;;;;;;17.95;66.58;102136.81;5040445;28;20033;-89
2022/10/13 07:29:28;;;;;;;3.08;2.42;;;;;;;17.83;66.56;102114.28;5032966;28;20116;-88
2022/10/13 07:32:27;;;;;;;3.50;2.10;;;;;;;18.07;66.76;102180.56;5028784;28;20057;-87
2022/10/13 07:35:24;;;;;;;4.00;2.10;;;;;;;18.18;66.98;102185.44;5030549;28;20037;-87
2022/10/13 07:37:58;;;;;;;2.40;1.80;;;;;;;17.69;66.41;102095.13;5029712;28;20049;-90
2022/10/13 07:40:24;;;;;;;3.60;2.20;;;;;;;17.84;66.64;102126.69;5019290;28;20174;-87
2022/10/13 07:42:51;;;;;;;3.40;2.17;;;;;;;17.96;66.87;102143.91;5033579;28;20030;-86
2022/10/13 07:45:16;;;;;;;3.42;2.20;;;;;;;17.92;66.56;102129.66;5030392;28;20025;-87
2022/10/13 07:47:42;;;;;;;3.72;2.30;;;;;;;17.83;66.60;102101.06;5019869;28;20037;-86
2022/10/13 07:50:09;;;;;;;7.78;2.13;;;;;;;17.96;66.39;102128.06;5025848;28;20542;-88
2022/10/13 07:52:35;;;;;;;3.90;2.28;;;;;;;18.26;66.07;102184.06;5035656;28;20025;-87
2022/10/13 07:55:26;;;;;;;3.80;1.98;;;;;;;18.25;66.47;102183.16;5033326;28;20079;-87
2022/10/13 07:58:31;;;;;;;4.28;1.90;;;;;;;17.87;66.38;102112.69;5030841;28;20091;-86
2022/10/13 08:01:10;;;;;;;3.97;1.88;;;;;;;17.89;66.31;102109.28;5034624;28;20028;-87
2022/10/13 08:03:35;;;;;;;3.20;1.90;;;;;;;18.16;66.47;102158.03;5033188;28;20032;-87
2022/10/13 08:06:22;;;;;;;4.35;2.00;;;;;;;18.27;66.57;102184.13;5029764;28;20030;-86
2022/10/13 08:08:48;;;;;;;4.15;2.10;;;;;;;17.98;67.00;102126.41;5032296;28;20028;-87
2022/10/13 08:11:14;;;;;;;3.05;1.98;;;;;;;18.27;66.40;102180.59;5039662;28;20092;-87
2022/10/13 08:13:59;;;;;;;5.10;1.95;;;;;;;18.29;66.58;102182.47;5026567;28;20127;-87
2022/10/13 08:16:30;;;;;;;8.52;2.30;;;;;;;18.07;66.44;102137.38;5028235;28;20033;-87
2022/10/13 08:19:01;;;;;;;3.33;2.08;;;;;;;17.98;66.36;102132.56;5037679;28;20025;-88
2022/10/13 08:21:58;;;;;;;2.28;1.80;;;;;;;18.33;66.28;102193.16;5036363;28;20667;-87
2022/10/13 08:24:54;;;;;;;2.78;1.80;;;;;;;18.36;66.38;102188.94;5028717;28;20034;-87
2022/10/13 08:27:38;;;;;;;4.00;2.25;;;;;;;17.82;66.39;102096.63;5028760;28;20053;-90
2022/10/13 08:30:38;;;;;;;3.10;1.95;;;;;;;18.42;66.42;102190.97;5029095;28;20104;-88
2022/10/13 08:33:37;;;;;;;2.63;1.95;;;;;;;17.74;66.21;102078.56;5031013;28;20029;-90
2022/10/13 08:36:19;;;;;;;3.83;2.20;;;;;;;18.21;66.25;102157.41;5051028;28;20040;-87
2022/10/13 08:38:47;;;;;;;3.45;1.88;;;;;;;18.29;66.47;102161.31;5044892;28;20033;-88
2022/10/13 08:44:59;;;;;;;4.18;1.98;;;;;;;17.77;66.53;102071.69;5033429;28;20029;-87
2022/10/13 08:47:54;;;;;;;4.60;2.05;;;;;;;18.42;66.85;102189.22;5041657;28;20025;-87
2022/10/13 08:50:22;;;;;;;3.03;1.98;;;;;;;18.23;67.26;102163.69;5043710;28;20021;-87
2022/10/13 08:52:58;;;;;;;2.95;1.55;;;;;;;18.09;67.00;102141.00;5033239;28;20074;-87
2022/10/13 08:55:29;;;;;;;7.95;2.10;;;;;;;18.15;67.27;102145.66;5049830;28;20047;-88
2022/10/13 08:57:58;;;;;;;2.55;1.65;;;;;;;17.99;66.26;102120.25;5042432;28;20503;-88
2022/10/13 09:00:24;;;;;;;3.50;1.80;;;;;;;18.46;66.82;102196.44;5016761;28;20041;-88
2022/10/13 09:02:50;;;;;;;3.15;1.98;;;;;;;18.46;67.34;102195.56;5033293;28;20101;-87
2022/10/13 09:09:07;;;;;;;3.08;1.50;;;;;;;18.48;67.44;102208.00;5040093;28;20341;-88
2022/10/13 09:11:41;;;;;;;3.72;1.80;;;;;;;18.03;67.08;102122.22;5044117;28;20024;-88
2022/10/13 09:14:39;;;;;;;2.78;1.70;;;;;;;18.51;67.64;102199.28;5017327;28;20048;-88
2022/10/13 09:17:32;;;;;;;4.57;2.03;;;;;;;18.09;67.70;102130.41;5037198;28;20053;-88
2022/10/13 09:20:47;;;;;;;4.45;2.20;;;;;;;18.45;68.06;102199.91;5032800;28;20469;-88
2022/10/13 09:23:37;;;;;;;2.55;1.70;;;;;;;18.44;68.20;102195.47;5033769;28;20064;-86
2022/10/13 09:26:54;;;;;;;2.30;1.70;;;;;;;18.29;68.06;102176.28;5035479;28;20478;-87
2022/10/13 09:29:32;;;;;;;4.15;1.80;;;;;;;18.22;67.22;102160.97;4958071;28;20031;-88
2022/10/13 09:32:24;;;;;;;1.98;1.55;;;;;;;18.43;67.80;102190.09;4980201;28;20026;-86
2022/10/13 09:34:51;;;;;;;2.22;1.70;;;;;;;18.10;67.26;102141.06;4973205;28;20041;-86
2022/10/13 09:37:37;;;;;;;3.95;1.70;;;;;;;18.20;67.38;102146.75;4973072;28;20058;-86
2022/10/13 09:40:42;;;;;;;4.72;1.30;;;;;;;17.81;67.25;102076.28;4990714;28;20033;-85
2022/10/13 09:44:09;;;;;;;3.28;1.60;;;;;;;18.03;66.96;102115.22;4960445;28;20026;-85
2022/10/13 09:46:47;;;;;;;1.88;1.50;;;;;;;18.45;67.06;102181.41;4967569;28;20114;-86
2022/10/13 09:49:57;;;;;;;4.63;1.60;;;;;;;18.42;66.89;102177.72;5040148;28;20060;-86
2022/10/13 09:52:38;;;;;;;2.88;1.60;;;;;;;17.77;67.03;102066.41;5031035;28;20131;-87
2022/10/13 09:55:38;;;;;;;1.85;1.35;;;;;;;18.40;66.99;102177.66;5034513;28;20032;-86
2022/10/13 09:58:40;;;;;;;2.25;1.60;;;;;;;17.81;66.98;102064.81;5048114;28;20044;-85
2022/10/13 10:01:37;;;;;;;1.88;1.58;;;;;;;18.11;66.66;102120.81;5049566;28;20108;-85
2022/10/13 10:07:42;;;;;;;3.10;1.65;;;;;;;18.15;67.09;102121.88;5032667;28;20541;-87
2022/10/13 10:10:48;;;;;;;2.60;1.45;;;;;;;18.42;66.74;102160.13;5023151;28;20526;-84
2022/10/13 10:13:17;;;;;;;4.95;1.67;;;;;;;17.72;67.05;102049.44;5029910;28;20063;-84
2022/10/13 10:16:35;;;;;;;3.63;1.65;;;;;;;18.24;67.04;102138.13;5029483;28;20017;-86
2022/10/13 10:19:44;;;;;;;2.17;1.60;;;;;;;18.37;67.04;102150.16;5040908;28;20487;-86
2022/10/13 10:22:47;;;;;;;2.70;1.48;;;;;;;18.38;67.17;102151.97;5036928;28;20029;-86
2022/10/13 10:25:32;;;;;;;2.22;1.38;;;;;;;18.38;67.07;102149.34;5036478;28;20055;-86
2022/10/13 10:28:09;;;;;;;3.63;1.50;;;;;;;18.30;67.01;102120.78;5034989;28;20079;-86
2022/10/13 10:30:40;;;;;;;3.30;1.60;;;;;;;18.33;67.23;102125.34;5045198;28;20107;-86
2022/10/13 10:33:11;;;;;;;3.38;1.60;;;;;;;18.44;67.65;102134.63;5031628;28;20520;-89
2022/10/13 10:35:47;;;;;;;4.30;1.70;;;;;;;18.43;67.69;102134.56;5033120;28;20026;-89
2022/10/13 10:38:26;;;;;;;3.10;1.70;;;;;;;18.44;68.03;102132.00;5033472;28;20041;-85
2022/10/13 10:41:12;;;;;;;2.17;1.80;;;;;;;18.47;67.95;102124.16;5032716;28;20029;-83
2022/10/13 10:44:07;;;;;;;2.95;1.45;;;;;;;18.48;68.21;102128.66;5032377;28;20060;-83
2022/10/13 10:46:38;;;;;;;4.13;1.70;;;;;;;18.42;67.97;102111.59;5034990;28;20104;-83
2022/10/13 10:49:12;;;;;;;3.80;1.63;;;;;;;18.40;68.41;102108.88;5032162;28;20049;-85
2022/10/13 10:51:38;;;;;;;2.88;1.50;;;;;;;18.40;69.25;102100.06;5038930;28;20094;-86
2022/10/13 10:54:16;;;;;;;3.33;1.70;;;;;;;18.44;68.61;102112.56;5042357;28;20025;-83
2022/10/13 10:56:55;;;;;;;3.33;1.40;;;;;;;18.42;68.99;102106.31;5041957;28;20092;-84
2022/10/13 10:59:38;;;;;;;2.75;1.55;;;;;;;18.49;68.88;102103.97;5040807;28;20061;-83
2022/10/13 11:02:07;;;;;;;5.18;2.08;;;;;;;18.54;68.06;102103.28;5039929;28;20053;-83
2022/10/13 11:04:48;;;;;;;3.85;1.80;;;;;;;18.51;68.92;102106.69;5036610;28;20051;-83
2022/10/13 11:07:22;;;;;;;4.75;1.50;;;;;;;18.58;68.15;102103.47;5040957;28;20453;-84
2022/10/13 11:09:49;;;;;;;7.53;2.00;;;;;;;18.54;68.31;102101.53;5032413;28;20029;-83
2022/10/13 11:12:20;;;;;;;4.47;1.98;;;;;;;18.55;68.61;102102.47;5032122;28;20021;-84
2022/10/13 11:15:10;;;;;;;3.45;1.85;;;;;;;18.58;68.42;102102.56;5047039;28;20032;-83
2022/10/13 11:17:37;;;;;;;3.75;1.83;;;;;;;18.57;68.66;102093.75;5038551;28;20029;-80
2022/10/13 11:20:26;;;;;;;5.68;2.00;;;;;;;18.51;68.83;102088.19;5047153;28;20017;-82
2022/10/13 11:22:57;;;;;;;4.60;2.05;;;;;;;18.57;69.00;102093.75;5036796;28;20102;-81
2022/10/13 11:25:35;;;;;;;3.90;2.00;;;;;;;18.56;69.15;102098.97;5031745;28;20034;-81
2022/10/13 11:28:21;;;;;;;3.72;1.85;;;;;;;18.53;68.91;102078.56;5044630;28;20422;-81
2022/10/13 11:30:51;;;;;;;3.78;2.00;;;;;;;18.60;68.31;102087.66;5031413;28;20033;-81
2022/10/13 11:33:35;;;;;;;3.53;1.92;;;;;;;18.61;68.77;102090.38;5030877;28;20438;-81
2022/10/13 11:36:38;;;;;;;4.07;1.77;;;;;;;18.64;67.98;102085.22;5032289;28;20052;-81
2022/10/13 11:39:26;;;;;;;2.95;1.92;;;;;;;18.61;68.46;102081.56;5040502;28;20033;-82
2022/10/13 11:41:57;;;;;;;2.92;1.80;;;;;;;18.70;67.74;102074.00;5036698;28;20109;-81
2022/10/13 11:44:38;;;;;;;3.35;1.70;;;;;;;18.73;67.58;102084.69;5032342;28;20450;-82
2022/10/13 11:47:13;;;;;;;3.05;1.83;;;;;;;18.67;67.34;102064.19;5031197;28;20017;-83
2022/10/13 11:50:04;;;;;;;3.47;1.90;;;;;;;18.82;67.25;102077.19;5031609;28;20597;-83
2022/10/13 11:52:30;;;;;;;3.67;1.90;;;;;;;18.86;67.06;102063.22;5030836;28;20026;-83
2022/10/13 11:55:08;;;;;;;4.60;1.88;;;;;;;18.78;67.08;102062.00;5032412;28;20021;-83
2022/10/13 11:57:34;;;;;;;3.55;1.95;;;;;;;18.75;67.15;102042.41;5030525;28;20029;-83
2022/10/13 11:59:59;;;;;;;2.83;1.83;;;;;;;18.75;66.83;102050.34;5030956;28;20570;-83
2022/10/13 12:02:26;;;;;;;3.95;2.03;;;;;;;18.82;67.23;102061.31;5031319;28;20025;-84
2022/10/13 12:05:05;;;;;;;4.10;1.95;;;;;;;18.81;67.01;102056.84;5031023;28;20029;-82
2022/10/13 12:07:34;;;;;;;6.45;1.70;;;;;;;18.86;66.75;102057.03;5030800;28;20029;-82